Time;durP1;ratioP1;P1;durP2;ratioP2;P2;SDS_P1;SDS_P2;PMS_P1;PMS_P2;Temp;Humidity;BMP_temperature;BMP_pressure;BME280_temperature;BME280_humidity;BME280_pressure;Samples;Min_cycle;Max_cycle;Signal;HPM_P1;HPM_P2
2022/07/27 00:02:14;;;;;;;4.40;2.00;;;18.80;99.90;;;;;;5086192;28;20465;-71
2022/07/27 00:04:40;;;;;;;3.97;2.05;;;18.80;99.90;;;;;;5086424;28;20080;-72
2022/07/27 00:07:05;;;;;;;7.78;2.47;;;18.80;99.90;;;;;;5085987;28;20032;-72
2022/07/27 00:09:31;;;;;;;5.38;1.90;;;18.70;99.90;;;;;;5086805;28;20082;-71
2022/07/27 00:11:56;;;;;;;4.88;1.90;;;18.70;99.90;;;;;;5083812;28;20039;-72
2022/07/27 00:14:22;;;;;;;4.85;2.20;;;18.60;99.90;;;;;;5080521;28;20031;-72
2022/07/27 00:16:48;;;;;;;7.95;2.15;;;18.60;99.90;;;;;;5087227;28;20031;-71
2022/07/27 00:19:13;;;;;;;5.82;1.75;;;18.60;99.90;;;;;;5084010;28;20031;-72
2022/07/27 00:21:39;;;;;;;6.72;1.83;;;18.50;99.90;;;;;;5084284;28;20036;-72
2022/07/27 00:24:05;;;;;;;5.97;2.30;;;18.50;99.90;;;;;;5077295;28;20029;-71
2022/07/27 00:26:30;;;;;;;5.45;1.90;;;18.50;99.90;;;;;;5077723;28;20522;-72
2022/07/27 00:28:56;;;;;;;4.72;2.33;;;18.40;99.90;;;;;;5083239;28;20033;-72
2022/07/27 00:31:21;;;;;;;5.65;2.15;;;18.40;99.90;;;;;;5082467;28;20119;-72
2022/07/27 00:33:47;;;;;;;3.90;1.80;;;18.30;99.90;;;;;;5084672;28;20024;-72
2022/07/27 00:36:12;;;;;;;8.57;2.80;;;18.30;99.90;;;;;;5082712;28;20107;-71
2022/07/27 00:38:38;;;;;;;6.45;2.38;;;18.20;99.90;;;;;;5087011;28;20028;-71
2022/07/27 00:41:04;;;;;;;3.70;2.03;;;18.20;99.90;;;;;;5080785;28;20031;-71
2022/07/27 00:43:30;;;;;;;6.50;2.13;;;18.20;99.90;;;;;;5079273;28;20025;-71
2022/07/27 00:45:55;;;;;;;5.57;2.20;;;18.20;99.90;;;;;;5076889;28;20542;-71
2022/07/27 00:48:21;;;;;;;9.13;1.95;;;18.20;99.90;;;;;;5081617;28;20036;-72
2022/07/27 00:50:47;;;;;;;5.55;2.35;;;18.20;99.90;;;;;;5086102;28;20040;-71
2022/07/27 00:53:13;;;;;;;5.10;2.30;;;18.10;99.90;;;;;;5088136;28;20109;-71
2022/07/27 00:55:38;;;;;;;7.50;2.58;;;18.10;99.90;;;;;;5083680;28;20047;-71
2022/07/27 00:58:07;;;;;;;8.48;2.25;;;18.10;99.90;;;;;;5083188;28;20032;-72
2022/07/27 01:00:35;;;;;;;5.28;2.00;;;18.00;99.90;;;;;;5087320;28;20455;-71
2022/07/27 01:03:00;;;;;;;5.00;2.00;;;18.00;99.90;;;;;;5081066;28;20020;-72
2022/07/27 01:05:26;;;;;;;5.25;2.33;;;18.00;99.90;;;;;;5079243;28;20067;-72
2022/07/27 01:07:52;;;;;;;4.68;2.10;;;18.00;99.90;;;;;;5086502;28;20631;-72
2022/07/27 01:10:18;;;;;;;4.15;2.35;;;17.90;99.90;;;;;;5073049;28;20122;-71
2022/07/27 01:12:44;;;;;;;5.25;3.05;;;17.90;99.90;;;;;;5080126;28;20029;-71
2022/07/27 01:15:11;;;;;;;5.38;2.70;;;17.90;99.90;;;;;;5075420;28;20398;-72
2022/07/27 01:17:37;;;;;;;5.72;2.47;;;17.80;99.90;;;;;;5089173;28;20081;-71
2022/07/27 01:20:04;;;;;;;6.45;2.72;;;17.70;99.90;;;;;;5085061;28;20107;-72
2022/07/27 01:22:30;;;;;;;4.93;2.50;;;17.80;99.90;;;;;;5084708;28;20090;-71
2022/07/27 01:24:56;;;;;;;7.10;3.08;;;17.70;99.90;;;;;;5080418;28;20469;-72
2022/07/27 01:27:21;;;;;;;5.30;2.58;;;17.70;99.90;;;;;;5078148;28;20482;-71
2022/07/27 01:29:47;;;;;;;4.90;2.58;;;17.70;99.90;;;;;;5089331;28;20055;-72
2022/07/27 01:32:13;;;;;;;7.55;3.00;;;17.60;99.90;;;;;;5090135;28;20038;-71
2022/07/27 01:34:39;;;;;;;7.63;3.03;;;17.60;99.90;;;;;;5088537;28;20108;-69
2022/07/27 01:37:05;;;;;;;7.18;3.08;;;17.60;99.90;;;;;;5082172;28;20058;-71
2022/07/27 01:39:31;;;;;;;5.28;3.00;;;17.50;99.90;;;;;;5083253;28;20016;-71
2022/07/27 01:41:57;;;;;;;5.22;2.30;;;17.40;99.90;;;;;;5082339;28;20461;-71
2022/07/27 01:44:23;;;;;;;8.75;2.70;;;17.40;99.90;;;;;;5079061;28;20028;-71
2022/07/27 01:46:49;;;;;;;5.55;2.33;;;17.40;99.90;;;;;;5087950;28;20513;-71
2022/07/27 01:49:15;;;;;;;4.38;2.78;;;17.40;99.90;;;;;;5087925;28;20357;-71
2022/07/27 01:51:41;;;;;;;5.25;2.97;;;17.30;99.90;;;;;;5088872;28;20039;-71
2022/07/27 01:54:06;;;;;;;5.82;2.92;;;17.30;99.90;;;;;;5088334;28;20031;-71
2022/07/27 01:56:32;;;;;;;8.75;2.90;;;17.20;99.90;;;;;;5084887;28;20031;-71
2022/07/27 01:58:58;;;;;;;7.63;2.80;;;17.10;99.90;;;;;;5085657;28;20021;-71
2022/07/27 02:01:24;;;;;;;7.00;3.25;;;17.10;99.90;;;;;;5081609;28;20028;-71
2022/07/27 02:03:50;;;;;;;6.13;3.00;;;17.10;99.90;;;;;;5085268;28;20027;-71
2022/07/27 02:06:16;;;;;;;7.20;2.97;;;17.00;99.90;;;;;;5086125;28;20028;-71
2022/07/27 02:08:41;;;;;;;4.90;2.83;;;17.00;99.90;;;;;;5084205;28;20044;-71
2022/07/27 02:13:51;;;;;;;7.03;3.05;;;17.00;99.90;;;;;;5086356;28;20427;-71
2022/07/27 02:16:18;;;;;;;5.38;2.88;;;16.90;99.90;;;;;;5085529;28;20475;-71
2022/07/27 02:18:44;;;;;;;5.15;2.78;;;16.90;99.90;;;;;;5080124;28;20016;-70
2022/07/27 02:21:10;;;;;;;8.02;2.70;;;16.90;99.90;;;;;;5083943;28;20033;-71
2022/07/27 02:23:37;;;;;;;5.35;3.00;;;16.80;99.90;;;;;;5085697;28;20024;-73
2022/07/27 02:26:04;;;;;;;7.00;3.20;;;16.80;99.90;;;;;;5083282;28;20042;-73
2022/07/27 02:28:30;;;;;;;5.95;3.00;;;16.80;99.90;;;;;;5085112;28;20016;-72
2022/07/27 02:30:56;;;;;;;7.78;3.10;;;16.80;99.90;;;;;;5083724;28;20127;-72
2022/07/27 02:33:21;;;;;;;6.18;2.80;;;16.70;99.90;;;;;;5080329;28;20028;-72
2022/07/27 02:35:47;;;;;;;5.45;2.90;;;16.60;99.90;;;;;;5080125;28;20028;-73
2022/07/27 02:38:12;;;;;;;4.90;3.15;;;16.60;99.90;;;;;;5082160;28;20028;-73
2022/07/27 02:40:38;;;;;;;5.50;3.30;;;16.60;99.90;;;;;;5090601;28;20021;-72
2022/07/27 02:43:04;;;;;;;5.25;3.00;;;16.60;99.90;;;;;;5084294;28;20079;-73
2022/07/27 02:45:29;;;;;;;3.40;2.95;;;16.50;99.90;;;;;;5085389;28;20031;-73
2022/07/27 02:47:55;;;;;;;10.20;3.70;;;16.50;99.90;;;;;;5077621;28;20069;-72
2022/07/27 02:50:21;;;;;;;4.97;2.65;;;16.50;99.90;;;;;;5084242;28;20041;-72
2022/07/27 02:52:46;;;;;;;7.22;2.80;;;16.40;99.90;;;;;;5083412;28;20020;-73
2022/07/27 02:55:12;;;;;;;5.97;3.50;;;16.40;99.90;;;;;;5079439;28;20033;-73
2022/07/27 02:57:39;;;;;;;9.02;3.63;;;16.40;99.90;;;;;;5081558;28;20029;-72
2022/07/27 03:00:11;;;;;;;6.85;3.00;;;16.30;99.90;;;;;;5082438;28;20052;-72
2022/07/27 03:02:37;;;;;;;6.53;3.15;;;16.30;99.90;;;;;;5085504;28;20130;-71
2022/07/27 03:05:07;;;;;;;5.38;3.40;;;16.30;99.90;;;;;;5084333;28;20016;-72
2022/07/27 03:07:33;;;;;;;7.47;3.38;;;16.30;99.90;;;;;;5076581;28;20025;-72
2022/07/27 03:09:58;;;;;;;5.75;3.05;;;16.30;99.90;;;;;;5078715;28;20562;-72
2022/07/27 03:12:24;;;;;;;6.28;2.75;;;16.20;99.90;;;;;;5082759;28;20032;-70
2022/07/27 03:14:50;;;;;;;3.25;2.53;;;16.20;99.90;;;;;;5081577;28;20023;-72
2022/07/27 03:17:15;;;;;;;4.53;3.20;;;16.20;99.90;;;;;;5076002;28;20442;-72
2022/07/27 03:19:41;;;;;;;6.03;3.53;;;16.20;99.90;;;;;;5085251;28;20032;-72
2022/07/27 03:22:07;;;;;;;5.05;2.80;;;16.10;99.90;;;;;;5082137;28;20021;-71
2022/07/27 03:24:32;;;;;;;5.47;2.75;;;16.10;99.90;;;;;;5079953;28;20024;-72
2022/07/27 03:26:58;;;;;;;7.03;3.00;;;16.10;99.90;;;;;;5086733;28;20042;-72
2022/07/27 03:29:23;;;;;;;6.15;2.75;;;16.00;99.90;;;;;;5085257;28;20051;-72
2022/07/27 03:31:49;;;;;;;4.10;2.95;;;16.00;99.90;;;;;;5080890;28;20040;-72
2022/07/27 03:34:15;;;;;;;4.25;2.85;;;16.00;99.90;;;;;;5083204;28;20023;-71
2022/07/27 03:36:41;;;;;;;5.22;3.25;;;15.90;99.90;;;;;;5080355;28;20020;-71
2022/07/27 03:39:07;;;;;;;5.22;2.67;;;15.90;99.90;;;;;;5086968;28;20020;-72
2022/07/27 03:41:33;;;;;;;3.80;3.00;;;15.90;99.90;;;;;;5082574;28;20020;-71
2022/07/27 03:43:59;;;;;;;6.47;3.08;;;15.90;99.90;;;;;;5087176;28;20028;-72
2022/07/27 03:46:25;;;;;;;7.10;3.17;;;15.80;99.90;;;;;;5085614;28;20095;-72
2022/07/27 03:48:50;;;;;;;6.82;3.20;;;15.80;99.90;;;;;;5084701;28;20028;-72
2022/07/27 03:51:16;;;;;;;3.83;3.00;;;15.80;99.90;;;;;;5083467;28;20036;-72
2022/07/27 03:53:41;;;;;;;5.60;3.35;;;15.70;99.90;;;;;;5086164;28;20482;-72
2022/07/27 03:56:07;;;;;;;5.47;3.13;;;15.70;99.90;;;;;;5082245;28;20112;-72
2022/07/27 03:58:33;;;;;;;8.27;3.97;;;15.70;99.90;;;;;;5080127;28;20428;-72
2022/07/27 04:00:58;;;;;;;4.82;3.13;;;15.70;99.90;;;;;;5086544;28;20031;-72
2022/07/27 04:03:24;;;;;;;6.15;3.80;;;15.70;99.90;;;;;;5079385;28;20048;-72
2022/07/27 04:05:50;;;;;;;6.43;3.55;;;15.70;99.90;;;;;;5086913;28;20032;-72
2022/07/27 04:08:16;;;;;;;5.95;3.70;;;15.70;99.90;;;;;;5082431;28;20062;-72
2022/07/27 04:10:42;;;;;;;7.32;3.65;;;15.60;99.90;;;;;;5075808;28;20044;-73
2022/07/27 04:13:09;;;;;;;5.68;3.40;;;15.50;99.90;;;;;;5076227;28;20017;-72
2022/07/27 04:15:35;;;;;;;9.00;3.60;;;15.50;99.90;;;;;;5081499;28;20493;-72
2022/07/27 04:18:01;;;;;;;5.90;3.92;;;15.50;99.90;;;;;;5085662;28;20048;-71
2022/07/27 04:20:27;;;;;;;7.63;3.95;;;15.50;99.90;;;;;;5080038;28;20040;-72
2022/07/27 04:22:52;;;;;;;7.70;3.85;;;15.50;99.90;;;;;;5085584;28;20384;-72
2022/07/27 04:25:18;;;;;;;5.13;3.83;;;15.40;99.90;;;;;;5083152;28;20073;-72
2022/07/27 04:27:43;;;;;;;7.28;3.83;;;15.50;99.90;;;;;;5079301;28;20028;-72
2022/07/27 04:30:10;;;;;;;8.43;3.80;;;15.40;99.90;;;;;;5083028;28;20036;-72
2022/07/27 04:32:36;;;;;;;7.15;3.83;;;15.40;99.90;;;;;;5079044;28;20130;-71
2022/07/27 04:35:01;;;;;;;6.03;3.90;;;15.30;99.90;;;;;;5082736;28;20028;-71
2022/07/27 04:37:27;;;;;;;5.40;4.30;;;15.30;99.90;;;;;;5082873;28;20039;-71
2022/07/27 04:39:56;;;;;;;4.88;3.65;;;15.30;99.90;;;;;;5087575;28;20029;-71
2022/07/27 04:42:22;;;;;;;6.05;3.60;;;15.30;99.90;;;;;;5077572;28;20469;-72
2022/07/27 04:44:48;;;;;;;4.47;3.50;;;15.30;99.90;;;;;;5085530;28;20085;-71
2022/07/27 04:47:13;;;;;;;6.80;3.92;;;15.30;99.90;;;;;;5088127;28;20020;-72
2022/07/27 04:49:39;;;;;;;6.60;3.90;;;15.30;99.90;;;;;;5087105;28;20469;-71
2022/07/27 04:52:05;;;;;;;7.00;3.60;;;15.30;99.90;;;;;;5082809;28;20047;-72
2022/07/27 04:54:30;;;;;;;5.90;3.30;;;15.30;99.90;;;;;;5085076;28;20028;-71
2022/07/27 04:56:56;;;;;;;4.93;3.17;;;15.30;99.90;;;;;;5082353;28;20475;-72
2022/07/27 04:59:21;;;;;;;5.78;3.45;;;15.30;99.90;;;;;;5088603;28;20047;-72
2022/07/27 05:01:47;;;;;;;6.93;4.05;;;15.30;99.90;;;;;;5084269;28;20040;-72
2022/07/27 05:04:13;;;;;;;4.88;3.78;;;15.30;99.90;;;;;;5080742;28;20036;-72
2022/07/27 05:06:39;;;;;;;5.53;3.65;;;15.30;99.90;;;;;;5088031;28;20035;-71
2022/07/27 05:09:04;;;;;;;6.78;4.47;;;15.30;99.90;;;;;;5079060;27;20433;-72
2022/07/27 05:11:30;;;;;;;7.97;3.95;;;15.30;99.90;;;;;;5083469;28;20087;-71
2022/07/27 05:13:56;;;;;;;5.50;4.13;;;15.30;99.90;;;;;;5079832;28;20077;-72
2022/07/27 05:16:21;;;;;;;8.05;4.70;;;15.30;99.90;;;;;;5082823;28;20107;-72
2022/07/27 05:18:47;;;;;;;5.65;4.10;;;15.30;99.90;;;;;;5087966;28;20037;-72
2022/07/27 05:21:13;;;;;;;5.25;3.70;;;15.40;99.90;;;;;;5084267;28;20103;-72
2022/07/27 05:23:38;;;;;;;5.82;3.67;;;15.40;99.90;;;;;;5085614;28;20028;-69
2022/07/27 05:26:04;;;;;;;6.53;3.63;;;15.40;99.90;;;;;;5078875;28;20035;-72
2022/07/27 05:28:30;;;;;;;7.43;4.78;;;15.40;99.90;;;;;;5087694;28;20461;-71
2022/07/27 05:30:55;;;;;;;8.27;4.30;;;15.40;99.90;;;;;;5085172;28;20489;-71
2022/07/27 05:33:21;;;;;;;5.90;4.63;;;15.40;99.90;;;;;;5083849;28;20411;-71
2022/07/27 05:35:47;;;;;;;7.00;5.25;;;15.40;99.90;;;;;;5083716;28;20082;-71
2022/07/27 05:38:12;;;;;;;6.82;4.35;;;15.50;99.90;;;;;;5082125;28;20051;-71
2022/07/27 05:40:39;;;;;;;8.45;5.95;;;15.60;99.90;;;;;;5087809;28;20036;-72
2022/07/27 05:43:05;;;;;;;9.60;5.43;;;15.60;99.90;;;;;;5081472;28;20020;-71
2022/07/27 05:45:30;;;;;;;14.45;5.50;;;15.60;99.90;;;;;;5082939;28;20494;-71
2022/07/27 05:47:58;;;;;;;9.20;6.00;;;15.60;99.90;;;;;;5078088;28;20024;-71
2022/07/27 05:50:24;;;;;;;10.52;5.60;;;15.70;99.90;;;;;;5088337;28;20326;-71
2022/07/27 05:52:49;;;;;;;9.73;5.65;;;15.70;99.90;;;;;;5088013;28;20038;-71
2022/07/27 05:55:15;;;;;;;7.65;5.18;;;15.70;99.90;;;;;;5086770;28;20488;-71
2022/07/27 05:57:41;;;;;;;9.93;5.32;;;15.80;99.90;;;;;;5088846;28;20143;-71
2022/07/27 06:00:08;;;;;;;6.88;4.75;;;15.80;99.90;;;;;;5081878;28;20032;-71
2022/07/27 06:02:34;;;;;;;7.82;4.38;;;15.80;99.90;;;;;;5080174;28;20020;-71
2022/07/27 06:05:00;;;;;;;8.30;5.00;;;15.90;99.90;;;;;;5081071;28;20084;-71
2022/07/27 06:10:10;;;;;;;9.48;4.82;;;15.90;99.90;;;;;;5079606;28;20101;-71
2022/07/27 06:12:40;;;;;;;5.80;4.18;;;15.90;99.90;;;;;;5082247;28;20009;-73
2022/07/27 06:15:08;;;;;;;8.13;3.80;;;16.00;99.90;;;;;;5081585;28;20054;-72
2022/07/27 06:17:33;;;;;;;3.92;3.50;;;16.00;99.90;;;;;;5083340;28;20051;-71
2022/07/27 06:19:59;;;;;;;10.55;4.28;;;16.00;99.90;;;;;;5084566;28;20020;-71
2022/07/27 06:22:25;;;;;;;6.00;3.50;;;16.00;99.90;;;;;;5081331;28;20028;-71
2022/07/27 06:24:51;;;;;;;11.88;3.95;;;16.00;99.90;;;;;;5085530;28;20484;-71
2022/07/27 06:27:17;;;;;;;8.30;4.57;;;16.00;99.90;;;;;;5080294;28;20365;-71
2022/07/27 06:29:43;;;;;;;10.20;4.35;;;16.10;99.90;;;;;;5086548;28;20074;-72
2022/07/27 06:32:09;;;;;;;3.90;3.42;;;16.10;99.90;;;;;;5085515;28;20047;-72
2022/07/27 06:34:34;;;;;;;7.97;3.55;;;16.10;99.90;;;;;;5086834;28;20024;-72
2022/07/27 06:37:00;;;;;;;10.55;3.47;;;16.20;99.90;;;;;;5090841;28;20112;-71
2022/07/27 06:39:26;;;;;;;9.50;3.47;;;16.20;99.90;;;;;;5084334;28;20032;-70
2022/07/27 06:41:51;;;;;;;5.13;3.83;;;16.20;99.90;;;;;;5086346;28;20020;-71
2022/07/27 06:44:17;;;;;;;10.35;3.88;;;16.20;99.90;;;;;;5080949;28;20043;-71
2022/07/27 06:46:43;;;;;;;4.65;3.33;;;16.30;99.90;;;;;;5087777;28;20524;-72
2022/07/27 06:49:08;;;;;;;6.85;3.55;;;16.40;99.90;;;;;;5083667;28;20038;-70
2022/07/27 06:51:34;;;;;;;6.55;3.25;;;16.50;99.90;;;;;;5082794;28;20037;-72
2022/07/27 06:53:59;;;;;;;8.27;3.60;;;16.50;99.90;;;;;;5087506;28;20103;-72
2022/07/27 06:56:25;;;;;;;14.75;3.50;;;16.50;99.90;;;;;;5083483;28;20131;-71
2022/07/27 06:58:51;;;;;;;8.13;3.55;;;16.50;99.90;;;;;;5085146;28;20540;-71
2022/07/27 07:01:17;;;;;;;7.03;2.65;;;16.60;99.90;;;;;;5088308;28;20097;-72
2022/07/27 07:03:43;;;;;;;6.13;2.83;;;16.70;99.90;;;;;;5085074;28;20044;-71
2022/07/27 07:06:09;;;;;;;5.72;2.40;;;16.80;99.90;;;;;;5079993;28;20094;-72
2022/07/27 07:08:35;;;;;;;4.28;2.17;;;17.00;99.90;;;;;;5080572;28;20095;-72
2022/07/27 07:11:00;;;;;;;2.67;1.50;;;17.00;99.90;;;;;;5081844;28;20037;-71
2022/07/27 07:13:26;;;;;;;7.90;1.33;;;17.10;99.90;;;;;;5083825;28;20028;-72
2022/07/27 07:15:52;;;;;;;7.72;1.60;;;17.30;99.90;;;;;;5083521;28;20066;-72
2022/07/27 07:18:17;;;;;;;5.47;1.48;;;17.30;99.90;;;;;;5085723;28;20480;-72
2022/07/27 07:20:43;;;;;;;3.55;1.30;;;17.30;99.90;;;;;;5086549;28;20515;-72
2022/07/27 07:23:10;;;;;;;6.65;1.23;;;17.40;99.90;;;;;;5081315;28;20066;-72
2022/07/27 07:25:37;;;;;;;3.25;1.00;;;17.40;99.90;;;;;;5083672;28;20035;-71
2022/07/27 07:28:03;;;;;;;9.02;1.35;;;17.60;99.90;;;;;;5082808;28;20032;-72
2022/07/27 07:30:29;;;;;;;2.47;1.00;;;17.70;99.90;;;;;;5083878;28;20048;-72
2022/07/27 07:32:55;;;;;;;4.30;1.42;;;17.70;99.90;;;;;;5083963;28;20445;-72
2022/07/27 07:35:22;;;;;;;2.85;1.00;;;17.90;99.90;;;;;;5082150;28;20028;-72
2022/07/27 07:37:47;;;;;;;2.60;0.90;;;18.10;99.90;;;;;;5081496;28;20040;-73
2022/07/27 07:40:13;;;;;;;4.47;1.02;;;18.20;99.90;;;;;;5084975;28;20032;-72
2022/07/27 07:42:56;;;;;;;3.05;0.90;;;18.30;99.90;;;;;;5075798;28;20028;-71
2022/07/27 07:45:23;;;;;;;4.15;0.95;;;18.10;99.90;;;;;;5083030;28;20028;-72
2022/07/27 07:47:49;;;;;;;3.58;0.77;;;18.10;99.90;;;;;;5084638;28;20119;-73
2022/07/27 07:50:15;;;;;;;4.93;1.10;;;18.00;99.90;;;;;;5086250;28;20107;-72
2022/07/27 07:52:41;;;;;;;3.53;0.73;;;18.00;99.90;;;;;;5078482;28;20035;-73
2022/07/27 07:55:07;;;;;;;1.85;0.82;;;18.00;99.90;;;;;;5079228;28;20024;-73
2022/07/27 07:57:33;;;;;;;1.92;1.02;;;18.10;99.90;;;;;;5080193;28;20471;-73
2022/07/27 07:59:59;;;;;;;4.05;0.90;;;18.00;99.90;;;;;;5091509;28;20042;-72
2022/07/27 08:02:24;;;;;;;3.63;1.13;;;18.00;99.90;;;;;;5078678;28;20482;-72
2022/07/27 08:04:50;;;;;;;4.15;1.73;;;18.00;99.90;;;;;;5080814;28;20128;-73
2022/07/27 08:07:16;;;;;;;0.90;0.60;;;18.00;99.90;;;;;;5080156;28;20466;-72
2022/07/27 08:09:41;;;;;;;4.10;1.13;;;18.10;99.90;;;;;;5083992;28;20035;-73
2022/07/27 08:12:07;;;;;;;2.17;0.70;;;18.40;99.90;;;;;;5079307;28;20370;-72
2022/07/27 08:14:33;;;;;;;3.97;0.98;;;18.60;99.90;;;;;;5076976;28;20021;-72
2022/07/27 08:16:58;;;;;;;3.72;0.75;;;18.70;99.90;;;;;;5089177;28;20074;-72
2022/07/27 08:19:24;;;;;;;3.72;0.68;;;18.70;99.90;;;;;;5083713;28;20566;-73
2022/07/27 08:21:50;;;;;;;2.28;0.95;;;18.50;99.90;;;;;;5084309;28;20043;-73
2022/07/27 08:24:15;;;;;;;2.83;0.88;;;18.50;99.90;;;;;;5079799;28;20020;-73
2022/07/27 08:26:41;;;;;;;3.53;0.95;;;18.50;99.90;;;;;;5084110;28;20109;-72
2022/07/27 08:29:07;;;;;;;1.15;0.45;;;18.40;99.90;;;;;;5087379;28;20059;-73
2022/07/27 08:31:32;;;;;;;3.30;0.80;;;18.40;99.90;;;;;;5084643;28;20044;-72
2022/07/27 08:33:58;;;;;;;2.92;0.95;;;18.30;99.90;;;;;;5079510;28;20558;-73
2022/07/27 08:36:24;;;;;;;4.30;0.70;;;18.30;99.90;;;;;;5082755;28;20029;-73
2022/07/27 08:38:49;;;;;;;2.17;0.82;;;18.40;99.90;;;;;;5083266;28;20034;-73
2022/07/27 08:41:17;;;;;;;2.20;0.80;;;18.50;99.90;;;;;;5084970;28;20060;-72
2022/07/27 08:43:44;;;;;;;2.85;0.80;;;18.90;99.90;;;;;;5079098;28;20031;-71
2022/07/27 08:46:10;;;;;;;2.53;0.80;;;19.20;99.90;;;;;;5082278;28;20477;-72
2022/07/27 08:48:38;;;;;;;3.38;0.77;;;19.60;99.90;;;;;;5079864;28;20500;-73
2022/07/27 08:51:06;;;;;;;4.15;0.90;;;19.90;99.90;;;;;;5078301;28;20046;-73
2022/07/27 08:53:32;;;;;;;2.90;0.80;;;20.30;99.90;;;;;;5085470;28;20021;-73
2022/07/27 08:55:58;;;;;;;4.50;0.70;;;20.50;99.90;;;;;;5079033;28;20032;-73
2022/07/27 08:58:25;;;;;;;4.97;0.80;;;20.60;99.90;;;;;;5083476;28;20108;-73
2022/07/27 09:00:51;;;;;;;2.38;0.88;;;20.80;99.90;;;;;;5088281;28;20030;-71
2022/07/27 09:03:20;;;;;;;3.40;0.88;;;20.80;99.90;;;;;;5080559;28;20489;-72
2022/07/27 09:05:56;;;;;;;2.85;0.88;;;20.90;99.90;;;;;;5082750;28;20100;-72
2022/07/27 09:08:24;;;;;;;2.20;0.90;;;21.00;99.00;;;;;;5081601;28;20060;-73
2022/07/27 09:10:55;;;;;;;2.85;0.70;;;20.90;99.90;;;;;;5079745;28;20038;-71
2022/07/27 09:13:28;;;;;;;3.90;0.90;;;20.70;99.90;;;;;;5081319;28;20032;-72
2022/07/27 09:15:58;;;;;;;3.85;0.80;;;20.60;99.90;;;;;;5076595;28;20033;-73
2022/07/27 09:18:27;;;;;;;3.58;0.57;;;20.60;99.90;;;;;;5081172;28;20027;-72
2022/07/27 09:21:11;;;;;;;1.90;0.50;;;20.30;99.90;;;;;;5082769;28;20046;-70
2022/07/27 09:23:44;;;;;;;3.97;1.00;;;20.30;99.80;;;;;;5085507;28;20091;-72
2022/07/27 09:26:16;;;;;;;2.72;1.08;;;20.30;99.40;;;;;;5079693;28;20021;-71
2022/07/27 09:28:42;;;;;;;4.20;0.68;;;20.30;99.70;;;;;;5077282;28;20124;-70
2022/07/27 09:31:11;;;;;;;3.03;0.77;;;20.30;99.90;;;;;;5081627;28;20032;-72
2022/07/27 09:33:44;;;;;;;2.35;0.80;;;20.30;99.90;;;;;;5083135;28;20104;-72
2022/07/27 09:36:11;;;;;;;2.30;0.70;;;20.30;99.90;;;;;;5076866;28;20021;-72
2022/07/27 09:38:37;;;;;;;2.63;0.77;;;20.40;99.90;;;;;;5086066;28;20016;-72
2022/07/27 09:41:04;;;;;;;3.05;0.80;;;20.30;99.90;;;;;;5090202;28;20373;-71
2022/07/27 09:43:43;;;;;;;5.15;0.90;;;20.30;99.90;;;;;;5063339;28;20092;-70
2022/07/27 09:46:08;;;;;;;4.22;1.00;;;20.20;99.90;;;;;;5085721;28;20029;-72
2022/07/27 09:48:35;;;;;;;2.50;0.75;;;20.10;99.90;;;;;;5092313;28;20036;-72
2022/07/27 09:51:06;;;;;;;3.75;1.25;;;20.10;99.90;;;;;;5091574;28;20123;-72
2022/07/27 09:53:34;;;;;;;4.53;1.00;;;20.00;99.90;;;;;;5091016;28;20474;-73
2022/07/27 09:56:01;;;;;;;2.95;0.88;;;20.00;99.90;;;;;;5085476;28;20034;-72
2022/07/27 09:58:46;;;;;;;4.20;0.90;;;20.00;99.90;;;;;;5091160;28;20031;-72
2022/07/27 10:01:16;;;;;;;7.97;1.33;;;20.10;99.90;;;;;;5087313;28;20115;-71
2022/07/27 10:03:43;;;;;;;2.85;0.85;;;20.10;99.90;;;;;;5090497;28;20024;-72
2022/07/27 10:06:10;;;;;;;4.43;1.00;;;20.20;99.90;;;;;;5085187;28;20040;-72
2022/07/27 10:08:42;;;;;;;4.32;1.08;;;20.30;99.90;;;;;;5090610;28;20028;-71
2022/07/27 10:11:08;;;;;;;3.67;1.10;;;20.30;99.90;;;;;;5093474;28;20047;-71
2022/07/27 10:13:34;;;;;;;1.73;1.27;;;20.40;99.90;;;;;;5086128;28;20013;-70
2022/07/27 10:16:03;;;;;;;3.72;1.10;;;20.40;99.90;;;;;;5091521;28;20102;-73
2022/07/27 10:18:49;;;;;;;2.78;1.02;;;20.40;99.90;;;;;;5093148;28;20062;-73
2022/07/27 10:21:15;;;;;;;2.55;1.10;;;20.40;99.90;;;;;;5086814;28;20043;-73
2022/07/27 10:23:59;;;;;;;3.67;1.05;;;20.40;99.90;;;;;;5085096;28;20370;-72
2022/07/27 10:26:25;;;;;;;5.43;1.20;;;20.50;99.90;;;;;;5088052;28;20012;-70
2022/07/27 10:28:58;;;;;;;11.52;1.30;;;20.60;99.90;;;;;;5091051;28;20082;-72
2022/07/27 10:31:31;;;;;;;4.28;0.80;;;21.10;99.90;;;;;;5086494;28;20473;-72
2022/07/27 10:33:59;;;;;;;3.40;1.10;;;21.60;99.90;;;;;;5091762;28;20028;-72
2022/07/27 10:36:31;;;;;;;4.90;1.48;;;22.00;99.60;;;;;;5088351;28;20024;-72
2022/07/27 10:38:59;;;;;;;2.95;1.20;;;21.80;99.90;;;;;;5089570;28;20138;-72
2022/07/27 10:41:30;;;;;;;1.88;1.05;;;21.50;99.90;;;;;;5090399;28;20087;-72
2022/07/27 10:44:17;;;;;;;3.70;1.50;;;21.20;99.60;;;;;;5092938;28;20020;-71
2022/07/27 10:46:43;;;;;;;3.03;0.90;;;21.10;99.90;;;;;;5091922;28;20070;-72
2022/07/27 10:49:19;;;;;;;2.95;0.93;;;21.00;99.90;;;;;;5091157;28;20493;-73
2022/07/27 10:51:45;;;;;;;5.72;1.10;;;20.90;99.90;;;;;;5087674;28;20516;-72
2022/07/27 10:54:25;;;;;;;3.33;1.05;;;20.90;99.90;;;;;;5090340;28;20096;-72
2022/07/27 10:56:56;;;;;;;5.57;1.10;;;21.00;99.90;;;;;;5088861;28;20127;-72
2022/07/27 10:59:40;;;;;;;2.55;1.08;;;21.00;99.90;;;;;;5090042;28;20021;-72
2022/07/27 11:02:08;;;;;;;2.38;0.90;;;21.10;99.90;;;;;;5085227;28;20038;-71
2022/07/27 11:04:44;;;;;;;3.53;1.38;;;21.10;98.90;;;;;;5088557;28;20211;-72
2022/07/27 11:07:10;;;;;;;5.32;0.93;;;21.10;98.90;;;;;;5086879;28;20047;-72
2022/07/27 11:09:40;;;;;;;7.80;1.20;;;21.10;99.70;;;;;;5088366;28;20120;-72
2022/07/27 11:12:08;;;;;;;4.35;1.17;;;21.10;98.80;;;;;;5089344;28;20064;-72
2022/07/27 11:14:55;;;;;;;4.45;1.10;;;21.10;98.20;;;;;;5093487;28;20025;-72
2022/07/27 11:17:25;;;;;;;3.95;1.30;;;21.10;98.00;;;;;;5087449;28;20065;-72
2022/07/27 11:19:59;;;;;;;3.53;1.02;;;21.10;98.20;;;;;;5087993;28;20020;-73
2022/07/27 11:22:35;;;;;;;3.30;0.80;;;21.20;98.40;;;;;;5086895;28;20034;-72
2022/07/27 11:25:01;;;;;;;3.90;0.77;;;21.30;98.90;;;;;;5089323;28;20099;-72
2022/07/27 11:27:27;;;;;;;3.55;1.05;;;21.30;97.70;;;;;;5089452;28;20473;-72
2022/07/27 11:29:53;;;;;;;2.17;0.88;;;21.40;97.50;;;;;;5088541;28;20039;-73
2022/07/27 11:32:19;;;;;;;4.07;1.20;;;21.50;97.80;;;;;;5084041;28;20057;-72
2022/07/27 11:34:45;;;;;;;2.00;0.90;;;21.50;98.10;;;;;;5087107;28;20043;-73
2022/07/27 11:37:22;;;;;;;2.50;0.90;;;21.60;98.40;;;;;;5086814;28;20464;-72
2022/07/27 11:39:56;;;;;;;3.55;1.10;;;21.80;97.50;;;;;;5089607;28;20105;-73
2022/07/27 11:42:22;;;;;;;5.15;0.90;;;22.20;97.30;;;;;;5081462;28;20066;-72
2022/07/27 11:44:48;;;;;;;3.88;1.10;;;22.60;96.40;;;;;;5092157;28;20427;-73
2022/07/27 11:47:18;;;;;;;3.22;1.20;;;23.00;96.40;;;;;;5089930;28;20028;-73
2022/07/27 11:49:44;;;;;;;3.72;1.20;;;23.40;96.10;;;;;;5087415;28;20024;-73
2022/07/27 11:52:10;;;;;;;2.55;1.20;;;23.40;94.70;;;;;;5097976;28;20093;-73
2022/07/27 11:54:40;;;;;;;4.20;0.85;;;23.30;95.50;;;;;;5087192;28;20030;-72
2022/07/27 11:57:07;;;;;;;2.35;0.82;;;23.30;94.20;;;;;;5084605;28;20578;-73
2022/07/27 11:59:41;;;;;;;3.10;0.90;;;23.10;95.80;;;;;;5090672;28;20050;-73
2022/07/27 12:02:13;;;;;;;3.50;1.00;;;23.00;94.90;;;;;;5086997;28;20091;-73
2022/07/27 12:04:41;;;;;;;2.75;0.90;;;22.80;95.80;;;;;;5086534;28;20023;-71
2022/07/27 12:07:16;;;;;;;2.58;1.00;;;22.70;96.00;;;;;;5087540;28;20037;-73
2022/07/27 12:09:49;;;;;;;4.13;1.15;;;22.70;95.80;;;;;;5075899;28;20034;-72
2022/07/27 12:12:15;;;;;;;4.53;0.95;;;22.60;95.90;;;;;;5085793;28;20064;-73
2022/07/27 12:14:53;;;;;;;4.25;1.30;;;22.50;95.80;;;;;;5083316;28;20100;-72
2022/07/27 12:17:24;;;;;;;4.45;0.93;;;22.60;96.30;;;;;;5086213;28;20401;-72
2022/07/27 12:19:56;;;;;;;2.70;1.10;;;22.60;95.70;;;;;;5086080;28;20024;-71
2022/07/27 12:22:27;;;;;;;5.95;0.98;;;22.60;95.90;;;;;;5084237;28;20020;-72
2022/07/27 12:24:54;;;;;;;3.67;0.95;;;22.60;95.60;;;;;;5082822;28;20103;-73
2022/07/27 12:27:20;;;;;;;4.35;1.00;;;22.50;95.20;;;;;;5085205;28;20353;-72
2022/07/27 12:30:07;;;;;;;4.50;1.17;;;22.50;94.80;;;;;;5086384;28;20055;-73
2022/07/27 12:32:39;;;;;;;2.67;1.10;;;22.50;94.60;;;;;;5082490;28;20449;-73
2022/07/27 12:35:24;;;;;;;;;;;22.60;95.00;;;;;;5090630;28;20628;-72
2022/07/27 12:38:11;;;;;;;1.33;0.65;;;22.50;94.60;;;;;;5081108;28;20309;-72
2022/07/27 12:40:46;;;;;;;4.45;1.00;;;22.60;94.10;;;;;;5095126;28;20059;-73
2022/07/27 12:43:23;;;;;;;4.30;1.40;;;22.50;94.20;;;;;;5082249;28;20028;-72
2022/07/27 12:45:50;;;;;;;2.50;1.08;;;22.50;95.20;;;;;;5085351;28;20484;-71
2022/07/27 12:48:24;;;;;;;3.88;1.27;;;22.60;95.30;;;;;;5082465;28;20376;-72
2022/07/27 12:51:03;;;;;;;3.42;0.95;;;23.10;95.80;;;;;;5091854;28;20027;-73
2022/07/27 12:53:30;;;;;;;2.38;1.10;;;23.50;94.00;;;;;;5086266;28;20064;-71
2022/07/27 12:55:57;;;;;;;2.78;1.27;;;23.80;93.50;;;;;;5092616;28;20032;-72